createdAt,value
2023-04-07T00:00:13.797Z,100806.44
2023-04-07T00:00:35.757Z,100816.13
2023-04-07T00:00:57.654Z,100808.09
2023-04-07T00:01:19.210Z,100803.56
2023-04-07T00:01:42.520Z,100813.34
2023-04-07T00:02:04.217Z,100804.41
2023-04-07T00:02:27.045Z,100812.38
2023-04-07T00:02:48.905Z,100766.13
2023-04-07T00:03:12.858Z,100816.75
2023-04-07T00:03:34.839Z,100797.22
2023-04-07T00:03:57.308Z,100807.78
2023-04-07T00:04:19.498Z,100806.03
2023-04-07T00:04:42.245Z,100809.09
2023-04-07T00:05:04.211Z,100813.41
2023-04-07T00:05:26.100Z,100810.75
2023-04-07T00:05:47.808Z,100815.22
2023-04-07T00:06:10.477Z,100810.94
2023-04-07T00:06:32.732Z,100813.47
2023-04-07T00:06:54.427Z,100812.56
2023-04-07T00:07:16.267Z,100780.25
2023-04-07T00:07:48.862Z,100803.56
2023-04-07T00:08:18.864Z,100808.22
2023-04-07T00:08:41.872Z,100812.56
2023-04-07T00:09:03.691Z,100817.88
2023-04-07T00:09:25.321Z,100803.72
2023-04-07T00:09:47.925Z,100796.06
2023-04-07T00:10:10.413Z,100804.91
2023-04-07T00:10:32.231Z,100809.91
2023-04-07T00:10:53.900Z,100817.88
2023-04-07T00:11:15.686Z,100809.03
2023-04-07T00:11:38.653Z,100812.69
2023-04-07T00:12:29.142Z,100810.75
2023-04-07T00:12:50.805Z,100801.78
2023-04-07T00:13:13.547Z,100810.63
2023-04-07T00:13:35.276Z,100813.25
2023-04-07T00:13:57.113Z,100816.75
2023-04-07T00:14:18.871Z,100819.34
2023-04-07T00:14:40.581Z,100799.97
2023-04-07T00:15:03.238Z,100812.16
2023-04-07T00:15:24.854Z,100803.38
2023-04-07T00:15:46.569Z,100807.41
2023-04-07T00:16:08.535Z,100816.34
2023-04-07T00:16:31.169Z,100813.75
2023-04-07T00:16:52.953Z,100813.53
2023-04-07T00:17:14.742Z,100802.44
2023-04-07T00:17:36.433Z,100809.16
2023-04-07T00:17:58.115Z,100812.63
2023-04-07T00:18:20.883Z,100806.44
2023-04-07T00:18:42.559Z,100807.25
2023-04-07T00:19:04.207Z,100808.22
2023-04-07T00:19:27.000Z,100809.09
2023-04-07T00:19:48.623Z,100809.94
2023-04-07T00:20:11.140Z,100804.63
2023-04-07T00:20:32.757Z,100812.63
2023-04-07T00:20:55.550Z,100809.94
2023-04-07T00:21:17.245Z,100809.91
2023-04-07T00:21:38.915Z,100811.59
2023-04-07T00:22:00.636Z,100807.16
2023-04-07T00:22:23.437Z,100807.28
2023-04-07T00:22:45.418Z,100802.91
2023-04-07T00:23:07.068Z,100797.47
2023-04-07T00:23:28.837Z,100808.09
2023-04-07T00:23:53.476Z,100806.13
2023-04-07T00:24:21.030Z,100803.47
2023-04-07T00:24:49.133Z,100804.34
2023-04-07T00:25:11.013Z,100799.97
2023-04-07T00:25:33.673Z,100808.69
2023-04-07T00:25:55.275Z,100806.19
2023-04-07T00:26:17.051Z,100806.19
2023-04-07T00:26:39.562Z,100802.56
2023-04-07T00:27:02.625Z,100801.75
2023-04-07T00:27:24.350Z,100798.16
2023-04-07T00:27:46.035Z,100806.19
2023-04-07T00:28:07.710Z,100812.38
2023-04-07T00:28:30.318Z,100799.16
2023-04-07T00:28:52.099Z,100797.59
2023-04-07T00:29:13.774Z,100810.94
2023-04-07T00:29:35.423Z,100804.72
2023-04-07T00:29:58.362Z,100805.63
2023-04-07T00:30:20.582Z,100791.44
2023-04-07T00:30:42.331Z,100808.13
2023-04-07T00:31:04.085Z,100805.44
2023-04-07T00:31:26.884Z,100796.63
2023-04-07T00:31:48.724Z,100809.91
2023-04-07T00:32:10.486Z,100802.72
2023-04-07T00:32:33.336Z,100799.16
2023-04-07T00:32:55.907Z,100799.91
2023-04-07T00:33:18.869Z,100797.22
2023-04-07T00:33:40.618Z,100803.34
2023-04-07T00:34:02.419Z,100799.69
2023-04-07T00:34:24.268Z,100797.97
2023-04-07T00:34:46.904Z,100803.13
2023-04-07T00:35:09.602Z,100806.66
2023-04-07T00:35:31.356Z,100794.38
2023-04-07T00:35:54.390Z,100803.28
2023-04-07T00:36:16.211Z,100796.09
2023-04-07T00:36:38.872Z,100791.59
2023-04-07T00:37:00.644Z,100796.13
2023-04-07T00:37:22.410Z,100800.53
2023-04-07T00:37:45.269Z,100796.13
2023-04-07T00:38:07.918Z,100800.47
2023-04-07T00:38:29.564Z,100808.44
2023-04-07T00:38:52.762Z,100806.66
2023-04-07T00:39:14.455Z,100797.88
2023-04-07T00:39:37.040Z,100805.88
2023-04-07T00:39:59.815Z,100798.88
2023-04-07T00:40:21.630Z,100801.53
2023-04-07T00:40:43.380Z,100801.63
2023-04-07T00:41:05.682Z,100797.31
2023-04-07T00:41:27.347Z,100795.41
2023-04-07T00:41:50.051Z,100808.69
2023-04-07T00:42:11.915Z,100792.63
2023-04-07T00:42:33.693Z,100797.97
2023-04-07T00:42:55.399Z,100797.03
2023-04-07T00:43:19.744Z,100801.44
2023-04-07T00:43:41.613Z,100798.78
2023-04-07T00:44:03.863Z,100796.22
2023-04-07T00:44:25.654Z,100797.03
2023-04-07T00:44:47.660Z,100801.44
2023-04-07T00:45:11.529Z,100796.22
2023-04-07T00:45:33.440Z,100796.22
2023-04-07T00:45:55.179Z,100803.28
2023-04-07T00:46:17.952Z,100798.06
2023-04-07T00:46:39.841Z,100800.63
2023-04-07T00:47:02.767Z,100798.81
2023-04-07T00:47:24.679Z,100796.13
2023-04-07T00:47:46.503Z,100799.59
2023-04-07T00:48:08.905Z,100800.47
2023-04-07T00:48:31.933Z,100796.09
2023-04-07T00:48:53.733Z,100794.38
2023-04-07T00:49:17.731Z,100800.53
2023-04-07T00:49:39.941Z,100790.84
2023-04-07T00:50:03.846Z,100793.31
2023-04-07T00:50:26.664Z,100799.59
2023-04-07T00:50:48.447Z,100792.44
2023-04-07T00:51:10.467Z,100791.53
2023-04-07T00:51:32.418Z,100792.47
2023-04-07T00:51:55.427Z,100790.69
2023-04-07T00:52:18.858Z,100792.56
2023-04-07T00:52:40.624Z,100792.56
2023-04-07T00:53:02.688Z,100787.31
2023-04-07T00:53:25.664Z,100779.41
2023-04-07T00:53:47.959Z,100794.44
2023-04-07T00:54:11.194Z,100788.31
2023-04-07T00:54:32.993Z,100787.44
2023-04-07T00:54:56.423Z,100787.44
2023-04-07T00:55:18.279Z,100791.00
2023-04-07T00:55:40.269Z,100786.69
2023-04-07T00:56:02.394Z,100790.19
2023-04-07T00:56:25.177Z,100784.03
2023-04-07T00:56:46.937Z,100784.88
2023-04-07T00:57:09.167Z,100786.59
2023-04-07T00:57:31.992Z,100788.19
2023-04-07T00:57:54.933Z,100787.25
2023-04-07T00:58:16.669Z,100787.16
2023-04-07T00:58:38.610Z,100788.94
2023-04-07T00:59:01.190Z,100784.50
2023-04-07T00:59:24.753Z,100792.44
2023-04-07T00:59:47.512Z,100789.75
2023-04-07T01:00:10.877Z,100787.13
2023-04-07T01:00:36.009Z,100790.53
2023-04-07T01:01:07.301Z,100792.41
2023-04-07T01:01:36.788Z,100786.22
2023-04-07T01:02:05.865Z,100787.13
2023-04-07T01:02:34.195Z,100785.38
2023-04-07T01:03:01.216Z,100789.81
2023-04-07T01:03:32.103Z,100785.38
2023-04-07T01:04:01.652Z,100794.22
2023-04-07T01:04:30.268Z,100788.91
2023-04-07T01:05:00.021Z,100781.06
2023-04-07T01:05:26.070Z,100788.88
2023-04-07T01:05:54.782Z,100789.75
2023-04-07T01:06:21.325Z,100789.78
2023-04-07T01:06:49.072Z,100789.75
2023-04-07T01:07:16.307Z,100784.47
2023-04-07T01:07:52.855Z,100783.59
2023-04-07T01:08:18.961Z,100794.19
2023-04-07T01:08:50.038Z,100786.38
2023-04-07T01:09:19.896Z,100783.75
2023-04-07T01:09:48.899Z,100787.41
2023-04-07T01:10:17.365Z,100781.09
2023-04-07T01:10:51.848Z,100785.53
2023-04-07T01:11:21.037Z,100781.84
2023-04-07T01:11:48.663Z,100789.78
2023-04-07T01:12:22.531Z,100786.97
2023-04-07T01:12:51.926Z,100779.03
2023-04-07T01:13:24.757Z,100778.94
2023-04-07T01:13:52.383Z,100771.94
2023-04-07T01:14:47.471Z,100784.91
2023-04-07T01:15:37.803Z,100781.31
2023-04-07T01:16:04.407Z,100784.84
2023-04-07T01:16:34.278Z,100778.66
2023-04-07T01:16:59.077Z,100781.28
2023-04-07T01:17:23.895Z,100779.63
2023-04-07T01:17:52.399Z,100780.47
2023-04-07T01:18:22.144Z,100783.16
2023-04-07T01:18:47.158Z,100776.28
2023-04-07T01:19:14.722Z,100776.13
2023-04-07T01:19:44.245Z,100779.78
2023-04-07T01:20:12.505Z,100772.69
2023-04-07T01:20:36.136Z,100780.72
2023-04-07T01:21:03.605Z,100765.75
2023-04-07T01:21:28.832Z,100780.78
2023-04-07T01:21:54.196Z,100779.78
2023-04-07T01:22:21.177Z,100779.00
2023-04-07T01:22:47.014Z,100783.38
2023-04-07T01:23:10.053Z,100782.53
2023-04-07T01:23:47.739Z,100771.06
2023-04-07T01:24:39.314Z,100773.72
2023-04-07T01:25:18.884Z,100787.00
2023-04-07T01:26:06.529Z,100776.53
2023-04-07T01:26:30.248Z,100777.38
2023-04-07T01:26:53.481Z,100778.31
2023-04-07T01:27:23.242Z,100767.84
2023-04-07T01:27:56.915Z,100770.34
2023-04-07T01:28:36.606Z,100772.81
2023-04-07T01:29:13.534Z,100786.81
2023-04-07T01:29:42.270Z,100782.34
2023-04-07T01:30:09.271Z,100777.03
2023-04-07T01:30:33.325Z,100782.25
2023-04-07T01:30:59.142Z,100776.00
2023-04-07T01:31:23.083Z,100776.06
2023-04-07T01:31:47.454Z,100782.41
2023-04-07T01:32:12.997Z,100775.41
2023-04-07T01:32:36.928Z,100779.69
2023-04-07T01:33:00.855Z,100777.97
2023-04-07T01:33:24.147Z,100776.94
2023-04-07T01:33:48.133Z,100779.59
2023-04-07T01:34:11.977Z,100775.09
2023-04-07T01:34:35.599Z,100783.94
2023-04-07T01:34:58.482Z,100778.56
2023-04-07T01:35:21.731Z,100783.88
2023-04-07T01:35:44.410Z,100780.34
2023-04-07T01:36:08.848Z,100776.00
2023-04-07T01:36:33.752Z,100783.78
2023-04-07T01:36:57.665Z,100774.19
2023-04-07T01:37:21.812Z,100784.81
2023-04-07T01:37:46.566Z,100769.81
2023-04-07T01:38:11.173Z,100774.97
2023-04-07T01:38:33.702Z,100776.72
2023-04-07T01:38:56.251Z,100780.25
2023-04-07T01:39:20.220Z,100781.03
2023-04-07T01:39:43.069Z,100784.56
2023-04-07T01:40:07.679Z,100784.53
2023-04-07T01:40:30.193Z,100779.25
2023-04-07T01:40:53.173Z,100788.06
2023-04-07T01:41:16.755Z,100789.75
2023-04-07T01:41:39.548Z,100779.22
2023-04-07T01:42:03.986Z,100781.88
2023-04-07T01:42:26.503Z,100783.59
2023-04-07T01:42:50.465Z,100776.41
2023-04-07T01:43:13.401Z,100787.94
2023-04-07T01:43:37.816Z,100780.81
2023-04-07T01:44:01.197Z,100786.16
2023-04-07T01:44:23.766Z,100784.38
2023-04-07T01:44:49.232Z,100785.25
2023-04-07T01:45:11.896Z,100786.13
2023-04-07T01:45:36.265Z,100787.88
2023-04-07T01:45:58.202Z,100784.25
2023-04-07T01:46:21.818Z,100778.19
2023-04-07T01:46:44.580Z,100785.38
2023-04-07T01:47:06.617Z,100783.63
2023-04-07T01:47:31.091Z,100788.06
2023-04-07T01:47:54.328Z,100782.78
2023-04-07T01:48:18.087Z,100783.63
2023-04-07T01:48:40.258Z,100780.91
2023-04-07T01:49:04.086Z,100785.41
2023-04-07T01:49:27.092Z,100781.00
2023-04-07T01:49:51.306Z,100781.13
2023-04-07T01:50:14.498Z,100775.88
2023-04-07T01:50:38.782Z,100782.97
2023-04-07T01:51:00.907Z,100781.13
2023-04-07T01:51:24.414Z,100783.88
2023-04-07T01:51:50.202Z,100782.97
2023-04-07T01:52:12.450Z,100777.75
2023-04-07T01:52:35.794Z,100778.72
2023-04-07T01:52:57.906Z,100785.72
2023-04-07T01:53:21.253Z,100769.94
2023-04-07T01:53:43.075Z,100778.50
2023-04-07T01:54:05.714Z,100785.56
2023-04-07T01:54:28.685Z,100775.81
2023-04-07T01:54:51.776Z,100776.69
2023-04-07T01:55:14.010Z,100780.91
2023-04-07T01:55:45.492Z,100788.81
2023-04-07T01:56:07.581Z,100775.59
2023-04-07T01:56:31.690Z,100782.53
2023-04-07T01:56:56.451Z,100780.69
2023-04-07T01:57:18.139Z,100779.81
2023-04-07T01:57:41.429Z,100785.09
2023-04-07T01:58:09.303Z,100778.84
2023-04-07T01:58:35.257Z,100776.19
2023-04-07T01:58:58.307Z,100779.75
2023-04-07T01:59:20.368Z,100782.44
2023-04-07T01:59:42.244Z,100780.59
2023-04-07T02:00:06.923Z,100779.75
2023-04-07T02:00:37.832Z,100779.75
2023-04-07T02:01:05.771Z,100777.97
2023-04-07T02:01:29.042Z,100782.44
2023-04-07T02:01:51.479Z,100784.16
2023-04-07T02:02:14.404Z,100779.66
2023-04-07T02:02:41.599Z,100784.06
2023-04-07T02:03:11.794Z,100776.94
2023-04-07T02:03:40.712Z,100780.44
2023-04-07T02:04:11.951Z,100780.25
2023-04-07T02:04:38.853Z,100780.31
2023-04-07T02:05:05.773Z,100781.19
2023-04-07T02:05:31.122Z,100780.25
2023-04-07T02:05:57.530Z,100780.31
2023-04-07T02:06:28.462Z,100779.41
2023-04-07T02:06:54.269Z,100774.13
2023-04-07T02:07:29.873Z,100771.47
2023-04-07T02:07:56.783Z,100767.06
2023-04-07T02:08:22.612Z,100773.19
2023-04-07T02:08:52.657Z,100775.75
2023-04-07T02:09:17.270Z,100773.16
2023-04-07T02:09:41.519Z,100773.09
2023-04-07T02:10:07.217Z,100785.47
2023-04-07T02:10:29.933Z,100777.44
2023-04-07T02:10:57.601Z,100773.00
2023-04-07T02:11:22.256Z,100779.19
2023-04-07T02:11:47.778Z,100776.41
2023-04-07T02:12:13.045Z,100768.53
2023-04-07T02:12:42.071Z,100774.66
2023-04-07T02:13:13.452Z,100762.34
2023-04-07T02:13:37.811Z,100759.72
2023-04-07T02:14:01.678Z,100773.69
2023-04-07T02:14:27.150Z,100780.69
2023-04-07T02:14:58.889Z,100784.25
2023-04-07T02:15:23.796Z,100781.56
2023-04-07T02:15:46.883Z,100777.16
2023-04-07T02:16:10.572Z,100776.22
2023-04-07T02:16:32.924Z,100773.53
2023-04-07T02:16:57.102Z,100777.94
2023-04-07T02:17:19.278Z,100772.59
2023-04-07T02:17:45.964Z,100776.16
2023-04-07T02:18:10.524Z,100773.41
2023-04-07T02:18:34.477Z,100772.59
2023-04-07T02:18:58.918Z,100774.41
2023-04-07T02:19:21.100Z,100775.19
2023-04-07T02:19:44.594Z,100772.66
2023-04-07T02:20:08.265Z,100773.56
2023-04-07T02:20:33.567Z,100776.97
2023-04-07T02:20:56.372Z,100776.19
2023-04-07T02:21:19.378Z,100779.72
2023-04-07T02:21:43.140Z,100770.81
2023-04-07T02:22:06.330Z,100777.09
2023-04-07T02:22:29.064Z,100773.41
2023-04-07T02:22:51.180Z,100784.91
2023-04-07T02:23:14.162Z,100773.47
2023-04-07T02:23:36.452Z,100778.72
2023-04-07T02:24:01.173Z,100775.16
2023-04-07T02:24:22.848Z,100778.69
2023-04-07T02:24:46.099Z,100775.19
2023-04-07T02:25:21.740Z,100775.19
2023-04-07T02:25:43.547Z,100785.78
2023-04-07T02:26:05.381Z,100775.09
2023-04-07T02:26:27.005Z,100775.09
2023-04-07T02:26:51.225Z,100777.69
2023-04-07T02:27:13.003Z,100780.31
2023-04-07T02:27:34.719Z,100782.16
2023-04-07T02:27:57.956Z,100781.28
2023-04-07T02:28:19.606Z,100777.69
2023-04-07T02:28:41.308Z,100775.03
2023-04-07T02:29:04.430Z,100782.16
2023-04-07T02:29:26.229Z,100780.44
2023-04-07T02:29:47.873Z,100779.50
2023-04-07T02:30:11.034Z,100784.88
2023-04-07T02:30:35.874Z,100776.88
2023-04-07T02:30:57.677Z,100773.31
2023-04-07T02:31:19.767Z,100776.94
2023-04-07T02:31:41.572Z,100779.50
2023-04-07T02:32:03.309Z,100776.78
2023-04-07T02:32:26.303Z,100778.69
2023-04-07T02:32:48.264Z,100775.09
2023-04-07T02:33:09.975Z,100783.88
2023-04-07T02:33:31.670Z,100780.34
2023-04-07T02:33:53.382Z,100789.16
2023-04-07T02:34:16.807Z,100778.50
2023-04-07T02:34:38.457Z,100776.78
2023-04-07T02:35:01.801Z,100780.34
2023-04-07T02:35:24.066Z,100783.97
2023-04-07T02:35:46.772Z,100789.28
2023-04-07T02:36:08.611Z,100781.34
2023-04-07T02:36:31.222Z,100775.91
2023-04-07T02:36:53.539Z,100769.81
2023-04-07T02:37:15.334Z,100777.63
2023-04-07T02:37:38.070Z,100788.28
2023-04-07T02:37:59.822Z,100782.97
2023-04-07T02:38:21.616Z,100783.78
2023-04-07T02:38:43.300Z,100777.63
2023-04-07T02:39:05.995Z,100772.38
2023-04-07T02:39:27.664Z,100781.03
2023-04-07T02:39:49.328Z,100774.06
2023-04-07T02:40:11.436Z,100783.78
2023-04-07T02:40:33.172Z,100784.66
2023-04-07T02:40:56.438Z,100778.38
2023-04-07T02:41:18.355Z,100781.91
2023-04-07T02:41:40.030Z,100786.31
2023-04-07T02:42:01.722Z,100781.00
2023-04-07T02:42:25.948Z,100781.13
2023-04-07T02:42:47.692Z,100783.63
2023-04-07T02:43:09.335Z,100780.09
2023-04-07T02:43:31.121Z,100783.63
2023-04-07T02:43:54.053Z,100786.31
2023-04-07T02:44:16.345Z,100788.03
2023-04-07T02:44:38.084Z,100780.13
2023-04-07T02:44:59.856Z,100787.16
2023-04-07T02:45:22.668Z,100785.41
2023-04-07T02:45:45.752Z,100788.94
2023-04-07T02:46:07.589Z,100786.19
2023-04-07T02:46:29.315Z,100788.88
2023-04-07T02:46:53.191Z,100787.16
2023-04-07T02:47:14.869Z,100788.88
2023-04-07T02:47:38.997Z,100787.19
2023-04-07T02:48:00.879Z,100790.72
2023-04-07T02:48:23.614Z,100777.38
2023-04-07T02:48:45.314Z,100780.19
2023-04-07T02:49:07.028Z,100785.28
2023-04-07T02:49:28.610Z,100789.69
2023-04-07T02:49:51.872Z,100789.69
2023-04-07T02:50:14.650Z,100783.50
2023-04-07T02:50:36.514Z,100786.09
2023-04-07T02:50:58.818Z,100791.44
2023-04-07T02:51:20.517Z,100784.38
2023-04-07T02:51:43.650Z,100787.84
2023-04-07T02:52:05.307Z,100783.31
2023-04-07T02:52:26.997Z,100791.31
2023-04-07T02:52:48.965Z,100787.03
2023-04-07T02:53:11.052Z,100785.13
2023-04-07T02:53:33.748Z,100797.56
2023-04-07T02:53:55.934Z,100784.25
2023-04-07T02:54:17.896Z,100787.84
2023-04-07T02:54:39.884Z,100785.97
2023-04-07T02:55:03.863Z,100793.19
2023-04-07T02:55:25.946Z,100793.19
2023-04-07T02:55:47.584Z,100778.34
2023-04-07T02:56:09.289Z,100793.19
2023-04-07T02:56:32.620Z,100786.97
2023-04-07T02:56:54.346Z,100787.84
2023-04-07T02:57:16.303Z,100781.84
2023-04-07T02:57:38.045Z,100789.66
2023-04-07T02:58:04.851Z,100788.78
2023-04-07T02:58:32.555Z,100792.31
2023-04-07T02:58:54.230Z,100794.88
2023-04-07T02:59:16.461Z,100790.44
2023-04-07T02:59:39.153Z,100790.56
2023-04-07T03:00:02.364Z,100794.88
2023-04-07T03:00:38.975Z,100793.06
2023-04-07T03:01:09.645Z,100794.75
2023-04-07T03:01:31.401Z,100785.94
2023-04-07T03:01:53.317Z,100794.78
2023-04-07T03:02:15.476Z,100792.13
2023-04-07T03:02:37.329Z,100787.72
2023-04-07T03:03:00.372Z,100789.47
2023-04-07T03:03:25.340Z,100794.78
2023-04-07T03:04:00.753Z,100788.59
2023-04-07T03:04:22.744Z,100786.81
2023-04-07T03:04:45.438Z,100782.53
2023-04-07T03:05:08.225Z,100788.59
2023-04-07T03:05:29.900Z,100789.53
2023-04-07T03:05:51.553Z,100792.09
2023-04-07T03:06:13.416Z,100789.44
2023-04-07T03:06:47.823Z,100786.75
2023-04-07T03:07:11.177Z,100791.13
2023-04-07T03:07:32.996Z,100785.03
2023-04-07T03:07:56.168Z,100792.09
2023-04-07T03:08:19.002Z,100789.44
2023-04-07T03:08:42.151Z,100790.25
2023-04-07T03:09:03.862Z,100785.94
2023-04-07T03:09:25.610Z,100785.03
2023-04-07T03:09:48.552Z,100780.56
2023-04-07T03:10:12.283Z,100785.97
2023-04-07T03:10:34.086Z,100780.09
2023-04-07T03:10:56.942Z,100789.56
2023-04-07T03:11:23.274Z,100793.09
2023-04-07T03:11:45.266Z,100794.06
2023-04-07T03:12:07.169Z,100793.06
2023-04-07T03:12:31.949Z,100791.31
2023-04-07T03:12:53.641Z,100781.75
2023-04-07T03:13:16.529Z,100786.19
2023-04-07T03:13:38.613Z,100798.50
2023-04-07T03:14:01.252Z,100793.28
2023-04-07T03:14:25.611Z,100794.88
2023-04-07T03:14:47.210Z,100792.31
2023-04-07T03:15:10.049Z,100794.88
2023-04-07T03:15:33.138Z,100796.72
2023-04-07T03:15:55.067Z,100789.56
2023-04-07T03:16:18.528Z,100793.94
2023-04-07T03:16:56.512Z,100792.94
2023-04-07T03:17:20.401Z,100792.09
2023-04-07T03:17:42.155Z,100790.34
2023-04-07T03:18:05.221Z,100792.09
2023-04-07T03:18:27.164Z,100794.75
2023-04-07T03:18:54.672Z,100793.78
2023-04-07T03:19:18.008Z,100793.69
2023-04-07T03:19:44.423Z,100796.41
2023-04-07T03:20:07.745Z,100799.13
2023-04-07T03:20:31.805Z,100793.78
2023-04-07T03:20:59.592Z,100785.03
2023-04-07T03:21:22.204Z,100794.66
2023-04-07T03:21:43.858Z,100796.41
2023-04-07T03:22:05.539Z,100785.75
2023-04-07T03:22:31.986Z,100794.66
2023-04-07T03:22:53.969Z,100787.56
2023-04-07T03:23:20.521Z,100788.44
2023-04-07T03:23:42.305Z,100789.44
2023-04-07T03:24:04.507Z,100790.25
2023-04-07T03:24:27.215Z,100793.75
2023-04-07T03:24:48.834Z,100794.66
2023-04-07T03:25:11.134Z,100791.13
2023-04-07T03:25:32.752Z,100786.81
2023-04-07T03:25:57.582Z,100792.13
2023-04-07T03:26:22.762Z,100785.13
2023-04-07T03:26:45.578Z,100794.75
2023-04-07T03:27:17.470Z,100790.44
2023-04-07T03:27:42.744Z,100789.53
2023-04-07T03:28:07.420Z,100788.59
2023-04-07T03:28:32.484Z,100793.94
2023-04-07T03:28:55.478Z,100785.97
2023-04-07T03:29:17.330Z,100793.00
2023-04-07T03:29:40.323Z,100777.25
2023-04-07T03:30:06.923Z,100785.88
2023-04-07T03:30:28.683Z,100786.63
2023-04-07T03:30:50.513Z,100791.09
2023-04-07T03:31:14.179Z,100784.84
2023-04-07T03:31:37.728Z,100781.53
2023-04-07T03:31:59.387Z,100785.75
2023-04-07T03:32:23.374Z,100786.69
2023-04-07T03:32:45.175Z,100798.16
2023-04-07T03:33:06.829Z,100786.75
2023-04-07T03:33:29.696Z,100792.13
2023-04-07T03:33:51.708Z,100790.44
2023-04-07T03:34:15.352Z,100794.78
2023-04-07T03:34:37.168Z,100787.84
2023-04-07T03:34:59.721Z,100792.19
2023-04-07T03:35:21.425Z,100790.44
2023-04-07T03:35:43.083Z,100786.81
2023-04-07T03:36:07.530Z,100798.38
2023-04-07T03:36:31.560Z,100796.53
2023-04-07T03:36:55.931Z,100794.84
2023-04-07T03:37:18.150Z,100791.31
2023-04-07T03:37:40.513Z,100786.91
2023-04-07T03:38:08.483Z,100789.56
2023-04-07T03:38:31.846Z,100794.09
2023-04-07T03:38:56.658Z,100779.97
2023-04-07T03:39:18.384Z,100790.50
2023-04-07T03:39:42.227Z,100795.88
2023-04-07T03:40:18.797Z,100790.56
2023-04-07T03:40:41.235Z,100792.19
2023-04-07T03:41:03.363Z,100786.91
2023-04-07T03:41:26.204Z,100801.09
2023-04-07T03:41:47.815Z,100793.97
2023-04-07T03:42:09.542Z,100786.84
2023-04-07T03:42:31.224Z,100788.72
2023-04-07T03:42:58.327Z,100794.09
2023-04-07T03:43:20.001Z,100789.66
2023-04-07T03:43:41.961Z,100792.31
2023-04-07T03:44:05.231Z,100791.44
2023-04-07T03:44:28.546Z,100793.22
2023-04-07T03:44:52.352Z,100790.59
2023-04-07T03:45:14.377Z,100795.00
2023-04-07T03:45:41.403Z,100793.22
2023-04-07T03:46:03.499Z,100799.47
2023-04-07T03:46:27.382Z,100787.94
2023-04-07T03:46:51.121Z,100793.22
2023-04-07T03:47:13.966Z,100793.28
2023-04-07T03:47:35.981Z,100789.69
2023-04-07T03:48:00.919Z,100790.69
2023-04-07T03:48:22.550Z,100791.47
2023-04-07T03:48:54.046Z,100788.78
2023-04-07T03:49:16.704Z,100793.22
2023-04-07T03:49:39.508Z,100795.00
2023-04-07T03:50:01.837Z,100800.34
2023-04-07T03:50:26.325Z,100801.22
2023-04-07T03:50:57.462Z,100799.41
2023-04-07T03:51:20.184Z,100795.88
2023-04-07T03:51:44.158Z,100794.13
2023-04-07T03:52:10.346Z,100795.13
2023-04-07T03:52:32.069Z,100795.06
2023-04-07T03:53:03.019Z,100786.09
2023-04-07T03:53:26.199Z,100794.09
2023-04-07T03:53:48.292Z,100801.16
2023-04-07T03:54:22.604Z,100794.09
2023-04-07T03:54:44.256Z,100795.00
2023-04-07T03:55:07.648Z,100794.13
2023-04-07T03:55:29.848Z,100795.84
2023-04-07T03:55:56.387Z,100798.50
2023-04-07T03:56:35.096Z,100797.56
2023-04-07T03:56:57.807Z,100794.06
2023-04-07T03:57:19.563Z,100799.41
2023-04-07T03:57:43.297Z,100798.50
2023-04-07T03:58:06.061Z,100796.72
2023-04-07T03:58:30.189Z,100788.78
2023-04-07T03:58:52.034Z,100801.97
2023-04-07T03:59:21.422Z,100793.94
2023-04-07T03:59:56.168Z,100798.38
2023-04-07T04:00:18.466Z,100798.50
2023-04-07T04:00:52.364Z,100802.94
2023-04-07T04:01:13.959Z,100799.41
2023-04-07T04:01:38.895Z,100787.16
2023-04-07T04:02:07.206Z,100794.31
2023-04-07T04:02:29.189Z,100802.16
2023-04-07T04:02:51.927Z,100800.34
2023-04-07T04:03:16.478Z,100803.91
2023-04-07T04:03:56.357Z,100800.56
2023-04-07T04:04:24.393Z,100797.09
2023-04-07T04:04:46.599Z,100800.63
2023-04-07T04:05:10.699Z,100799.69
2023-04-07T04:05:32.462Z,100798.81
2023-04-07T04:05:54.555Z,100795.41
2023-04-07T04:06:22.099Z,100799.69
2023-04-07T04:06:45.803Z,100795.34
2023-04-07T04:07:26.250Z,100796.97
2023-04-07T04:07:51.287Z,100798.81
2023-04-07T04:08:13.155Z,100804.94
2023-04-07T04:08:36.787Z,100797.09
2023-04-07T04:08:59.160Z,100807.56
2023-04-07T04:09:21.313Z,100803.91
2023-04-07T04:09:44.109Z,100800.47
2023-04-07T04:10:09.050Z,100804.03
2023-04-07T04:10:35.244Z,100796.09
2023-04-07T04:10:57.273Z,100802.28
2023-04-07T04:11:22.498Z,100790.81
2023-04-07T04:11:52.615Z,100803.91
2023-04-07T04:12:14.314Z,100804.84
2023-04-07T04:12:48.341Z,100811.09
2023-04-07T04:13:10.384Z,100806.56
2023-04-07T04:13:34.015Z,100806.56
2023-04-07T04:13:58.772Z,100796.09
2023-04-07T04:14:20.960Z,100811.16
2023-04-07T04:14:49.524Z,100804.00
2023-04-07T04:15:12.488Z,100803.13
2023-04-07T04:15:34.800Z,100804.25
2023-04-07T04:15:58.706Z,100807.75
2023-04-07T04:16:21.397Z,100807.78
2023-04-07T04:16:44.797Z,100805.34
2023-04-07T04:17:21.010Z,100817.78
2023-04-07T04:17:42.768Z,100806.22
2023-04-07T04:18:05.449Z,100808.06
2023-04-07T04:18:28.232Z,100818.59
2023-04-07T04:18:50.056Z,100816.81
2023-04-07T04:19:12.028Z,100808.81
2023-04-07T04:19:34.652Z,100813.28
2023-04-07T04:20:02.209Z,100813.22
2023-04-07T04:20:37.301Z,100814.91
2023-04-07T04:20:59.470Z,100809.63
2023-04-07T04:21:22.565Z,100813.22
2023-04-07T04:21:44.201Z,100815.03
2023-04-07T04:22:05.987Z,100811.53
2023-04-07T04:22:32.270Z,100815.88
2023-04-07T04:22:54.903Z,100812.41
2023-04-07T04:23:16.721Z,100800.94
2023-04-07T04:23:39.483Z,100815.94
2023-04-07T04:24:01.719Z,100811.47
2023-04-07T04:24:25.870Z,100810.56
2023-04-07T04:24:49.690Z,100813.22
2023-04-07T04:25:11.305Z,100815.81
2023-04-07T04:25:35.242Z,100817.59
2023-04-07T04:26:03.822Z,100816.75
2023-04-07T04:26:27.369Z,100808.13
2023-04-07T04:26:52.532Z,100817.72
2023-04-07T04:27:15.413Z,100813.31
2023-04-07T04:27:37.381Z,100816.75
2023-04-07T04:28:10.519Z,100824.78
2023-04-07T04:28:32.567Z,100816.97
2023-04-07T04:28:55.906Z,100817.88
2023-04-07T04:29:18.007Z,100823.03
2023-04-07T04:29:40.569Z,100823.03
2023-04-07T04:30:08.002Z,100818.00
2023-04-07T04:30:34.456Z,100820.72
2023-04-07T04:30:58.483Z,100823.34
2023-04-07T04:31:21.178Z,100822.50
2023-04-07T04:31:43.900Z,100830.59
2023-04-07T04:32:06.366Z,100820.88
2023-04-07T04:32:29.724Z,100818.38
2023-04-07T04:32:51.819Z,100826.19
2023-04-07T04:33:20.178Z,100820.00
2023-04-07T04:33:48.153Z,100819.25
2023-04-07T04:34:09.932Z,100823.53
2023-04-07T04:34:33.189Z,100823.53
2023-04-07T04:34:54.915Z,100828.00
2023-04-07T04:35:16.851Z,100829.91
2023-04-07T04:35:49.105Z,100821.09
2023-04-07T04:36:14.998Z,100814.03
2023-04-07T04:36:38.395Z,100829.06